sensor_id;sensor_type;location;lat;lon;timestamp;pressure;altitude;pressure_sealevel;temperature;humidity
70103;BME280;57470;50.034;15.256;2022-10-16T00:01:39;99384.09;;;14.22;100.00
70103;BME280;57470;50.034;15.256;2022-10-16T00:04:05;99389.44;;;14.22;100.00
70103;BME280;57470;50.034;15.256;2022-10-16T00:06:31;99385.84;;;14.33;100.00
70103;BME280;57470;50.034;15.256;2022-10-16T00:08:57;99390.34;;;14.32;100.00
70103;BME280;57470;50.034;15.256;2022-10-16T00:11:33;99388.25;;;14.36;100.00
70103;BME280;57470;50.034;15.256;2022-10-16T00:14:03;99387.25;;;14.48;100.00
70103;BME280;57470;50.034;15.256;2022-10-16T00:16:29;99388.59;;;14.42;100.00
70103;BME280;57470;50.034;15.256;2022-10-16T00:18:56;99392.47;;;14.49;100.00
70103;BME280;57470;50.034;15.256;2022-10-16T00:21:24;99402.53;;;14.57;100.00
70103;BME280;57470;50.034;15.256;2022-10-16T00:23:51;99405.84;;;14.49;100.00
70103;BME280;57470;50.034;15.256;2022-10-16T00:26:18;99402.59;;;14.46;100.00
70103;BME280;57470;50.034;15.256;2022-10-16T00:28:49;99400.16;;;14.63;100.00
70103;BME280;57470;50.034;15.256;2022-10-16T00:31:16;99398.50;;;14.72;100.00
70103;BME280;57470;50.034;15.256;2022-10-16T00:33:42;99393.31;;;14.80;100.00
70103;BME280;57470;50.034;15.256;2022-10-16T00:36:10;99390.84;;;14.68;100.00
70103;BME280;57470;50.034;15.256;2022-10-16T00:38:36;99400.69;;;14.57;100.00
70103;BME280;57470;50.034;15.256;2022-10-16T00:41:03;99403.31;;;14.78;100.00
70103;BME280;57470;50.034;15.256;2022-10-16T00:46:08;99412.88;;;14.71;100.00
70103;BME280;57470;50.034;15.256;2022-10-16T00:48:36;99429.47;;;14.65;100.00
70103;BME280;57470;50.034;15.256;2022-10-16T00:51:01;99416.53;;;14.70;100.00
70103;BME280;57470;50.034;15.256;2022-10-16T00:53:27;99411.22;;;14.80;100.00
70103;BME280;57470;50.034;15.256;2022-10-16T00:55:52;99411.94;;;14.82;100.00
70103;BME280;57470;50.034;15.256;2022-10-16T00:58:18;99418.47;;;14.68;100.00
70103;BME280;57470;50.034;15.256;2022-10-16T01:00:44;99421.38;;;14.55;100.00
70103;BME280;57470;50.034;15.256;2022-10-16T01:03:32;99414.63;;;14.61;100.00
70103;BME280;57470;50.034;15.256;2022-10-16T01:06:32;99423.47;;;14.52;100.00
70103;BME280;57470;50.034;15.256;2022-10-16T01:09:09;99424.19;;;14.75;100.00
70103;BME280;57470;50.034;15.256;2022-10-16T01:14:54;99436.25;;;14.69;100.00
70103;BME280;57470;50.034;15.256;2022-10-16T01:20:29;99438.59;;;14.83;100.00
70103;BME280;57470;50.034;15.256;2022-10-16T01:26:11;99448.31;;;14.84;100.00
70103;BME280;57470;50.034;15.256;2022-10-16T01:28:50;99442.63;;;14.98;100.00
70103;BME280;57470;50.034;15.256;2022-10-16T01:31:19;99441.31;;;14.93;100.00
70103;BME280;57470;50.034;15.256;2022-10-16T01:34:00;99433.94;;;14.85;100.00
70103;BME280;57470;50.034;15.256;2022-10-16T01:36:37;99442.63;;;14.98;100.00
70103;BME280;57470;50.034;15.256;2022-10-16T01:39:04;99434.13;;;14.93;100.00
70103;BME280;57470;50.034;15.256;2022-10-16T01:41:36;99429.66;;;14.73;100.00
70103;BME280;57470;50.034;15.256;2022-10-16T01:44:17;99432.03;;;14.97;100.00
70103;BME280;57470;50.034;15.256;2022-10-16T01:46:47;99434.03;;;14.74;100.00
70103;BME280;57470;50.034;15.256;2022-10-16T01:49:16;99439.03;;;14.88;100.00
70103;BME280;57470;50.034;15.256;2022-10-16T01:51:45;99438.91;;;14.90;100.00
70103;BME280;57470;50.034;15.256;2022-10-16T01:54:15;99433.81;;;14.87;100.00
70103;BME280;57470;50.034;15.256;2022-10-16T01:56:46;99421.38;;;14.86;100.00
70103;BME280;57470;50.034;15.256;2022-10-16T01:59:18;99433.25;;;14.83;100.00
70103;BME280;57470;50.034;15.256;2022-10-16T02:01:50;99435.50;;;14.88;100.00
70103;BME280;57470;50.034;15.256;2022-10-16T02:04:37;99439.44;;;14.84;100.00
70103;BME280;57470;50.034;15.256;2022-10-16T02:07:03;99422.78;;;14.80;100.00
70103;BME280;57470;50.034;15.256;2022-10-16T02:09:30;99429.28;;;14.87;100.00
70103;BME280;57470;50.034;15.256;2022-10-16T02:11:59;99420.59;;;14.44;100.00
70103;BME280;57470;50.034;15.256;2022-10-16T02:14:28;99419.00;;;14.83;100.00
70103;BME280;57470;50.034;15.256;2022-10-16T02:16:54;99423.34;;;14.53;100.00
70103;BME280;57470;50.034;15.256;2022-10-16T02:19:20;99429.72;;;14.62;100.00
70103;BME280;57470;50.034;15.256;2022-10-16T02:27:03;99434.03;;;14.74;100.00
70103;BME280;57470;50.034;15.256;2022-10-16T02:29:32;99439.94;;;14.78;100.00
70103;BME280;57470;50.034;15.256;2022-10-16T02:32:02;99438.91;;;14.90;100.00
70103;BME280;57470;50.034;15.256;2022-10-16T02:34:31;99445.13;;;14.90;100.00
70103;BME280;57470;50.034;15.256;2022-10-16T02:36:58;99456.03;;;14.78;100.00
70103;BME280;57470;50.034;15.256;2022-10-16T02:39:26;99453.38;;;14.57;100.00
70103;BME280;57470;50.034;15.256;2022-10-16T02:41:52;99454.00;;;14.70;100.00
70103;BME280;57470;50.034;15.256;2022-10-16T02:44:17;99436.16;;;14.80;100.00
70103;BME280;57470;50.034;15.256;2022-10-16T02:46:43;99450.59;;;14.68;100.00
70103;BME280;57470;50.034;15.256;2022-10-16T02:49:08;99458.25;;;14.73;100.00
70103;BME280;57470;50.034;15.256;2022-10-16T02:51:33;99454.53;;;14.85;100.00
70103;BME280;57470;50.034;15.256;2022-10-16T02:53:59;99456.88;;;14.78;100.00
70103;BME280;57470;50.034;15.256;2022-10-16T02:56:25;99451.50;;;14.78;100.00
70103;BME280;57470;50.034;15.256;2022-10-16T02:58:50;99445.00;;;14.71;100.00
70103;BME280;57470;50.034;15.256;2022-10-16T03:01:15;99443.78;;;14.54;100.00
70103;BME280;57470;50.034;15.256;2022-10-16T03:03:42;99450.81;;;14.55;100.00
70103;BME280;57470;50.034;15.256;2022-10-16T03:06:07;99453.56;;;14.65;100.00
70103;BME280;57470;50.034;15.256;2022-10-16T03:08:33;99451.81;;;14.54;100.00
70103;BME280;57470;50.034;15.256;2022-10-16T03:10:58;99450.03;;;14.33;100.00
70103;BME280;57470;50.034;15.256;2022-10-16T03:13:24;99445.03;;;14.18;100.00
70103;BME280;57470;50.034;15.256;2022-10-16T03:15:49;99447.16;;;14.24;100.00
70103;BME280;57470;50.034;15.256;2022-10-16T03:18:15;99451.16;;;13.98;100.00
70103;BME280;57470;50.034;15.256;2022-10-16T03:20:41;99450.94;;;14.01;100.00
70103;BME280;57470;50.034;15.256;2022-10-16T03:23:07;99443.88;;;14.00;100.00
70103;BME280;57470;50.034;15.256;2022-10-16T03:25:33;99443.41;;;14.27;100.00
70103;BME280;57470;50.034;15.256;2022-10-16T03:27:58;99447.53;;;14.31;100.00
70103;BME280;57470;50.034;15.256;2022-10-16T03:30:24;99449.84;;;14.56;100.00
70103;BME280;57470;50.034;15.256;2022-10-16T03:32:49;99450.22;;;14.52;100.00
70103;BME280;57470;50.034;15.256;2022-10-16T03:35:22;99443.72;;;14.34;100.00
70103;BME280;57470;50.034;15.256;2022-10-16T03:37:48;99455.03;;;14.37;100.00
70103;BME280;57470;50.034;15.256;2022-10-16T03:40:13;99448.31;;;14.43;100.00
70103;BME280;57470;50.034;15.256;2022-10-16T03:42:39;99450.50;;;14.49;100.00
70103;BME280;57470;50.034;15.256;2022-10-16T03:45:05;99457.50;;;14.29;100.00
70103;BME280;57470;50.034;15.256;2022-10-16T03:47:30;99458.56;;;14.38;100.00
70103;BME280;57470;50.034;15.256;2022-10-16T03:49:58;99460.63;;;14.34;100.00
70103;BME280;57470;50.034;15.256;2022-10-16T03:52:23;99470.88;;;14.29;100.00
70103;BME280;57470;50.034;15.256;2022-10-16T03:54:49;99474.91;;;14.55;100.00
70103;BME280;57470;50.034;15.256;2022-10-16T03:57:14;99476.75;;;14.55;100.00
70103;BME280;57470;50.034;15.256;2022-10-16T03:59:40;99492.88;;;14.64;100.00
70103;BME280;57470;50.034;15.256;2022-10-16T04:02:05;99488.88;;;14.80;100.00
70103;BME280;57470;50.034;15.256;2022-10-16T04:04:30;99496.38;;;14.86;100.00
70103;BME280;57470;50.034;15.256;2022-10-16T04:06:56;99492.41;;;14.80;100.00
70103;BME280;57470;50.034;15.256;2022-10-16T04:09:21;99505.53;;;14.62;100.00
70103;BME280;57470;50.034;15.256;2022-10-16T04:11:47;99507.19;;;14.75;100.00
70103;BME280;57470;50.034;15.256;2022-10-16T04:14:12;99501.16;;;14.82;100.00
70103;BME280;57470;50.034;15.256;2022-10-16T04:16:38;99504.47;;;14.95;100.00
70103;BME280;57470;50.034;15.256;2022-10-16T04:19:03;99502.50;;;14.97;100.00
70103;BME280;57470;50.034;15.256;2022-10-16T04:21:28;99507.06;;;15.07;100.00
70103;BME280;57470;50.034;15.256;2022-10-16T04:23:54;99499.81;;;15.18;100.00
70103;BME280;57470;50.034;15.256;2022-10-16T04:26:19;99495.59;;;14.95;100.00
70103;BME280;57470;50.034;15.256;2022-10-16T04:28:45;99493.84;;;14.84;100.00
70103;BME280;57470;50.034;15.256;2022-10-16T04:31:10;99495.06;;;14.59;100.00
70103;BME280;57470;50.034;15.256;2022-10-16T04:33:36;99493.78;;;14.75;100.00
70103;BME280;57470;50.034;15.256;2022-10-16T04:36:02;99503.44;;;14.66;100.00
70103;BME280;57470;50.034;15.256;2022-10-16T04:38:29;99502.50;;;14.77;100.00
70103;BME280;57470;50.034;15.256;2022-10-16T04:40:54;99501.81;;;14.54;100.00
70103;BME280;57470;50.034;15.256;2022-10-16T04:43:21;99498.81;;;14.36;100.00
70103;BME280;57470;50.034;15.256;2022-10-16T04:45:46;99505.25;;;14.34;100.00
70103;BME280;57470;50.034;15.256;2022-10-16T04:48:11;99510.41;;;14.25;100.00
70103;BME280;57470;50.034;15.256;2022-10-16T04:50:37;99514.00;;;14.36;100.00
70103;BME280;57470;50.034;15.256;2022-10-16T04:53:03;99508.78;;;14.45;100.00
70103;BME280;57470;50.034;15.256;2022-10-16T04:55:28;99521.06;;;14.48;100.00
70103;BME280;57470;50.034;15.256;2022-10-16T04:57:53;99518.97;;;14.51;100.00
70103;BME280;57470;50.034;15.256;2022-10-16T05:00:19;99517.81;;;14.65;100.00
70103;BME280;57470;50.034;15.256;2022-10-16T05:02:44;99518.75;;;14.43;100.00
70103;BME280;57470;50.034;15.256;2022-10-16T05:05:10;99518.19;;;14.60;100.00
70103;BME280;57470;50.034;15.256;2022-10-16T05:07:35;99518.84;;;14.74;100.00
70103;BME280;57470;50.034;15.256;2022-10-16T05:10:00;99525.25;;;14.61;100.00
70103;BME280;57470;50.034;15.256;2022-10-16T05:12:26;99535.28;;;14.69;100.00
70103;BME280;57470;50.034;15.256;2022-10-16T05:14:51;99533.50;;;14.90;100.00
70103;BME280;57470;50.034;15.256;2022-10-16T05:17:17;99542.19;;;14.83;100.00
70103;BME280;57470;50.034;15.256;2022-10-16T05:19:42;99546.88;;;14.90;100.00
70103;BME280;57470;50.034;15.256;2022-10-16T05:22:07;99549.03;;;14.76;100.00
70103;BME280;57470;50.034;15.256;2022-10-16T05:24:33;99549.94;;;14.86;100.00
70103;BME280;57470;50.034;15.256;2022-10-16T05:26:58;99544.41;;;14.98;100.00
70103;BME280;57470;50.034;15.256;2022-10-16T05:29:24;99550.78;;;14.86;100.00
70103;BME280;57470;50.034;15.256;2022-10-16T05:31:51;99537.88;;;14.91;100.00
70103;BME280;57470;50.034;15.256;2022-10-16T05:34:16;99538.81;;;14.70;100.00
70103;BME280;57470;50.034;15.256;2022-10-16T05:36:42;99546.47;;;14.74;100.00
70103;BME280;57470;50.034;15.256;2022-10-16T05:39:09;99551.69;;;14.55;100.00
70103;BME280;57470;50.034;15.256;2022-10-16T05:41:35;99549.66;;;14.47;100.00
70103;BME280;57470;50.034;15.256;2022-10-16T05:44:03;99543.44;;;14.36;100.00
70103;BME280;57470;50.034;15.256;2022-10-16T05:46:29;99539.78;;;14.48;100.00
70103;BME280;57470;50.034;15.256;2022-10-16T05:48:54;99543.69;;;14.44;100.00
70103;BME280;57470;50.034;15.256;2022-10-16T05:51:20;99553.94;;;14.27;100.00
70103;BME280;57470;50.034;15.256;2022-10-16T05:53:45;99558.97;;;14.53;100.00
70103;BME280;57470;50.034;15.256;2022-10-16T05:56:11;99544.63;;;14.54;100.00
70103;BME280;57470;50.034;15.256;2022-10-16T05:58:38;99551.00;;;14.42;100.00
70103;BME280;57470;50.034;15.256;2022-10-16T06:01:17;99566.81;;;14.45;100.00
70103;BME280;57470;50.034;15.256;2022-10-16T06:03:42;99566.13;;;14.63;100.00
70103;BME280;57470;50.034;15.256;2022-10-16T06:06:10;99568.50;;;14.46;100.00
70103;BME280;57470;50.034;15.256;2022-10-16T06:08:35;99573.31;;;14.63;100.00
70103;BME280;57470;50.034;15.256;2022-10-16T06:11:06;99577.34;;;14.78;100.00
70103;BME280;57470;50.034;15.256;2022-10-16T06:13:32;99591.78;;;14.66;100.00
70103;BME280;57470;50.034;15.256;2022-10-16T06:15:59;99593.44;;;14.46;100.00
70103;BME280;57470;50.034;15.256;2022-10-16T06:18:25;99594.78;;;14.41;100.00
70103;BME280;57470;50.034;15.256;2022-10-16T06:20:51;99599.16;;;14.42;100.00
70103;BME280;57470;50.034;15.256;2022-10-16T06:23:16;99601.47;;;14.46;100.00
70103;BME280;57470;50.034;15.256;2022-10-16T06:25:42;99604.66;;;14.72;100.00
70103;BME280;57470;50.034;15.256;2022-10-16T06:28:07;99615.25;;;14.74;100.00
70103;BME280;57470;50.034;15.256;2022-10-16T06:30:33;99623.53;;;14.71;100.00
70103;BME280;57470;50.034;15.256;2022-10-16T06:32:58;99618.41;;;14.68;100.00
70103;BME280;57470;50.034;15.256;2022-10-16T06:35:23;99611.59;;;14.75;100.00
70103;BME280;57470;50.034;15.256;2022-10-16T06:37:49;99610.22;;;14.80;100.00
70103;BME280;57470;50.034;15.256;2022-10-16T06:40:14;99614.31;;;15.16;100.00
70103;BME280;57470;50.034;15.256;2022-10-16T06:42:41;99624.41;;;15.13;100.00
70103;BME280;57470;50.034;15.256;2022-10-16T06:45:07;99631.81;;;14.99;100.00
70103;BME280;57470;50.034;15.256;2022-10-16T06:47:32;99619.44;;;14.87;100.00
70103;BME280;57470;50.034;15.256;2022-10-16T06:49:58;99632.06;;;14.96;100.00
70103;BME280;57470;50.034;15.256;2022-10-16T06:52:23;99639.22;;;14.75;100.00
70103;BME280;57470;50.034;15.256;2022-10-16T06:54:49;99635.63;;;14.86;100.00
70103;BME280;57470;50.034;15.256;2022-10-16T06:57:14;99630.25;;;14.65;100.00
70103;BME280;57470;50.034;15.256;2022-10-16T06:59:40;99641.75;;;14.77;100.00
70103;BME280;57470;50.034;15.256;2022-10-16T07:02:05;99635.63;;;14.86;100.00
70103;BME280;57470;50.034;15.256;2022-10-16T07:04:32;99643.25;;;14.58;100.00
70103;BME280;57470;50.034;15.256;2022-10-16T07:06:57;99643.03;;;14.93;100.00
70103;BME280;57470;50.034;15.256;2022-10-16T07:09:25;99650.44;;;15.01;100.00
70103;BME280;57470;50.034;15.256;2022-10-16T07:11:50;99651.69;;;14.86;100.00
70103;BME280;57470;50.034;15.256;2022-10-16T07:14:18;99659.03;;;14.84;100.00
70103;BME280;57470;50.034;15.256;2022-10-16T07:16:44;99659.44;;;15.00;100.00
70103;BME280;57470;50.034;15.256;2022-10-16T07:19:10;99663.19;;;15.09;100.00
70103;BME280;57470;50.034;15.256;2022-10-16T07:21:37;99661.81;;;15.35;100.00
70103;BME280;57470;50.034;15.256;2022-10-16T07:24:05;99676.00;;;15.26;100.00
70103;BME280;57470;50.034;15.256;2022-10-16T07:26:33;99669.44;;;15.39;100.00
70103;BME280;57470;50.034;15.256;2022-10-16T07:29:01;99685.13;;;15.55;100.00
70103;BME280;57470;50.034;15.256;2022-10-16T07:31:28;99690.47;;;15.76;100.00
70103;BME280;57470;50.034;15.256;2022-10-16T07:33:54;99679.78;;;15.55;100.00
70103;BME280;57470;50.034;15.256;2022-10-16T07:36:20;99674.69;;;15.41;100.00
70103;BME280;57470;50.034;15.256;2022-10-16T07:38:47;99676.81;;;15.58;100.00
70103;BME280;57470;50.034;15.256;2022-10-16T07:41:17;99681.94;;;15.50;100.00
70103;BME280;57470;50.034;15.256;2022-10-16T07:43:49;99684.19;;;15.66;100.00
70103;BME280;57470;50.034;15.256;2022-10-16T07:46:26;99678.28;;;15.51;100.00
70103;BME280;57470;50.034;15.256;2022-10-16T07:48:52;99677.00;;;15.46;100.00
70103;BME280;57470;50.034;15.256;2022-10-16T07:51:19;99681.06;;;15.61;100.00
70103;BME280;57470;50.034;15.256;2022-10-16T07:53:46;99690.75;;;15.73;100.00
70103;BME280;57470;50.034;15.256;2022-10-16T07:56:14;99687.41;;;15.81;100.00
70103;BME280;57470;50.034;15.256;2022-10-16T07:58:40;99691.41;;;15.96;100.00
70103;BME280;57470;50.034;15.256;2022-10-16T08:01:08;99692.47;;;15.84;100.00
70103;BME280;57470;50.034;15.256;2022-10-16T08:03:34;99696.53;;;15.99;100.00
70103;BME280;57470;50.034;15.256;2022-10-16T08:06:00;99695.50;;;15.90;100.00
70103;BME280;57470;50.034;15.256;2022-10-16T08:08:26;99702.06;;;16.07;100.00
70103;BME280;57470;50.034;15.256;2022-10-16T08:10:52;99714.19;;;16.01;100.00
70103;BME280;57470;50.034;15.256;2022-10-16T08:13:18;99698.50;;;15.97;100.00
70103;BME280;57470;50.034;15.256;2022-10-16T08:15:44;99703.84;;;15.97;100.00
70103;BME280;57470;50.034;15.256;2022-10-16T08:18:13;99709.06;;;16.29;100.00
70103;BME280;57470;50.034;15.256;2022-10-16T08:20:39;99701.56;;;16.23;100.00
70103;BME280;57470;50.034;15.256;2022-10-16T08:23:05;99708.28;;;16.47;100.00
70103;BME280;57470;50.034;15.256;2022-10-16T08:25:36;99709.56;;;16.43;100.00
70103;BME280;57470;50.034;15.256;2022-10-16T08:28:06;99702.75;;;16.70;100.00
70103;BME280;57470;50.034;15.256;2022-10-16T08:30:33;99709.97;;;16.88;100.00
70103;BME280;57470;50.034;15.256;2022-10-16T08:32:59;99714.34;;;16.80;100.00
70103;BME280;57470;50.034;15.256;2022-10-16T08:35:24;99712.56;;;16.60;100.00
70103;BME280;57470;50.034;15.256;2022-10-16T08:37:50;99711.22;;;16.84;100.00
70103;BME280;57470;50.034;15.256;2022-10-16T08:40:21;99709.88;;;17.00;100.00
70103;BME280;57470;50.034;15.256;2022-10-16T08:45:47;99711.69;;;17.18;100.00
70103;BME280;57470;50.034;15.256;2022-10-16T08:48:25;99720.59;;;17.48;100.00
70103;BME280;57470;50.034;15.256;2022-10-16T08:50:54;99716.53;;;17.34;100.00
70103;BME280;57470;50.034;15.256;2022-10-16T08:53:26;99715.53;;;17.16;100.00
70103;BME280;57470;50.034;15.256;2022-10-16T08:55:53;99726.56;;;17.32;100.00
70103;BME280;57470;50.034;15.256;2022-10-16T08:58:21;99713.25;;;17.50;100.00
70103;BME280;57470;50.034;15.256;2022-10-16T09:00:53;99713.25;;;17.40;99.38
70103;BME280;57470;50.034;15.256;2022-10-16T09:06:50;99704.31;;;17.78;99.08
70103;BME280;57470;50.034;15.256;2022-10-16T09:09:29;99700.09;;;17.66;100.00
70103;BME280;57470;50.034;15.256;2022-10-16T09:19:56;99714.34;;;18.32;97.72
70103;BME280;57470;50.034;15.256;2022-10-16T09:22:27;99717.25;;;18.12;97.91
70103;BME280;57470;50.034;15.256;2022-10-16T09:24:55;99708.88;;;18.15;97.44
70103;BME280;57470;50.034;15.256;2022-10-16T09:27:24;99708.56;;;18.18;97.55
70103;BME280;57470;50.034;15.256;2022-10-16T09:29:50;99710.16;;;18.11;97.92
70103;BME280;57470;50.034;15.256;2022-10-16T09:32:20;99724.56;;;18.19;98.09
70103;BME280;57470;50.034;15.256;2022-10-16T09:34:50;99730.41;;;18.52;96.96
70103;BME280;57470;50.034;15.256;2022-10-16T09:37:20;99729.09;;;18.65;96.37
70103;BME280;57470;50.034;15.256;2022-10-16T09:39:54;99731.94;;;18.54;96.43
70103;BME280;57470;50.034;15.256;2022-10-16T09:42:28;99729.44;;;18.43;96.15
70103;BME280;57470;50.034;15.256;2022-10-16T09:44:56;99733.00;;;18.71;95.39
70103;BME280;57470;50.034;15.256;2022-10-16T09:47:30;99739.06;;;18.83;96.72
70103;BME280;57470;50.034;15.256;2022-10-16T09:50:02;99730.75;;;18.94;95.24
70103;BME280;57470;50.034;15.256;2022-10-16T09:52:29;99735.44;;;18.92;94.46
70103;BME280;57470;50.034;15.256;2022-10-16T09:55:01;99726.06;;;18.96;94.00
70103;BME280;57470;50.034;15.256;2022-10-16T09:57:27;99722.69;;;19.11;94.30
70103;BME280;57470;50.034;15.256;2022-10-16T09:59:57;99720.50;;;19.33;94.45
70103;BME280;57470;50.034;15.256;2022-10-16T10:02:29;99719.00;;;19.30;93.71
70103;BME280;57470;50.034;15.256;2022-10-16T10:04:55;99710.84;;;19.22;94.64
70103;BME280;57470;50.034;15.256;2022-10-16T10:07:27;99729.19;;;19.54;93.59
70103;BME280;57470;50.034;15.256;2022-10-16T10:09:55;99727.53;;;19.26;92.75
70103;BME280;57470;50.034;15.256;2022-10-16T10:12:25;99744.59;;;19.62;93.09
70103;BME280;57470;50.034;15.256;2022-10-16T10:15:14;99736.16;;;19.47;93.92
70103;BME280;57470;50.034;15.256;2022-10-16T10:17:57;99739.78;;;19.73;94.31
70103;BME280;57470;50.034;15.256;2022-10-16T10:20:36;99741.44;;;19.92;93.49
70103;BME280;57470;50.034;15.256;2022-10-16T10:23:24;99742.59;;;19.90;93.96
70103;BME280;57470;50.034;15.256;2022-10-16T10:31:19;99731.84;;;20.49;90.84
70103;BME280;57470;50.034;15.256;2022-10-16T10:34:00;99731.81;;;20.83;90.14
70103;BME280;57470;50.034;15.256;2022-10-16T10:36:37;99729.19;;;21.16;89.77
70103;BME280;57470;50.034;15.256;2022-10-16T10:39:16;99724.78;;;21.15;90.66
70103;BME280;57470;50.034;15.256;2022-10-16T10:44:33;99715.25;;;20.86;89.60
70103;BME280;57470;50.034;15.256;2022-10-16T10:47:19;99715.66;;;21.08;90.27
70103;BME280;57470;50.034;15.256;2022-10-16T10:53:28;99715.38;;;21.51;87.63
70103;BME280;57470;50.034;15.256;2022-10-16T11:01:13;99713.00;;;22.91;82.24
70103;BME280;57470;50.034;15.256;2022-10-16T11:06:20;99702.94;;;23.08;82.02
70103;BME280;57470;50.034;15.256;2022-10-16T11:08:54;99703.47;;;22.64;80.87
70103;BME280;57470;50.034;15.256;2022-10-16T11:11:50;99707.34;;;22.78;82.89
70103;BME280;57470;50.034;15.256;2022-10-16T11:14:26;99709.56;;;22.74;77.60
70103;BME280;57470;50.034;15.256;2022-10-16T11:17:00;99710.41;;;23.29;78.25
70103;BME280;57470;50.034;15.256;2022-10-16T11:19:48;99715.66;;;22.68;78.27
70103;BME280;57470;50.034;15.256;2022-10-16T11:30:27;99712.22;;;23.13;74.47
70103;BME280;57470;50.034;15.256;2022-10-16T11:35:39;99716.59;;;23.83;75.88
70103;BME280;57470;50.034;15.256;2022-10-16T11:38:18;99714.56;;;23.62;73.16
70103;BME280;57470;50.034;15.256;2022-10-16T11:40:50;99718.13;;;23.40;71.19
70103;BME280;57470;50.034;15.256;2022-10-16T11:43:28;99710.31;;;23.82;68.74
70103;BME280;57470;50.034;15.256;2022-10-16T11:45:57;99710.09;;;24.07;69.90
70103;BME280;57470;50.034;15.256;2022-10-16T11:56:36;99724.00;;;24.56;68.57
70103;BME280;57470;50.034;15.256;2022-10-16T12:00:05;99718.81;;;24.02;68.97
70103;BME280;57470;50.034;15.256;2022-10-16T12:02:28;99723.91;;;23.82;69.93
70103;BME280;57470;50.034;15.256;2022-10-16T12:05:11;99723.69;;;24.07;70.67
70103;BME280;57470;50.034;15.256;2022-10-16T12:07:56;99729.22;;;23.61;68.42
70103;BME280;57470;50.034;15.256;2022-10-16T12:10:28;99729.03;;;22.70;72.16
70103;BME280;57470;50.034;15.256;2022-10-16T12:12:56;99739.00;;;23.16;72.49
70103;BME280;57470;50.034;15.256;2022-10-16T12:15:28;99745.28;;;22.86;73.38
70103;BME280;57470;50.034;15.256;2022-10-16T12:17:54;99730.19;;;23.14;71.05
70103;BME280;57470;50.034;15.256;2022-10-16T12:20:21;99728.06;;;23.55;69.19
70103;BME280;57470;50.034;15.256;2022-10-16T12:23:06;99730.00;;;23.84;69.41
70103;BME280;57470;50.034;15.256;2022-10-16T12:28:01;99739.19;;;24.21;68.91
70103;BME280;57470;50.034;15.256;2022-10-16T12:30:31;99737.78;;;24.25;66.81
70103;BME280;57470;50.034;15.256;2022-10-16T12:33:01;99731.13;;;24.27;67.81
70103;BME280;57470;50.034;15.256;2022-10-16T12:35:33;99733.66;;;24.29;67.44
70103;BME280;57470;50.034;15.256;2022-10-16T12:38:25;99746.91;;;24.32;69.16
70103;BME280;57470;50.034;15.256;2022-10-16T12:41:00;99744.44;;;24.66;67.16
70103;BME280;57470;50.034;15.256;2022-10-16T12:46:18;99741.16;;;24.86;66.53
70103;BME280;57470;50.034;15.256;2022-10-16T12:48:45;99745.47;;;24.65;66.19
70103;BME280;57470;50.034;15.256;2022-10-16T12:51:44;99744.44;;;24.66;65.12
70103;BME280;57470;50.034;15.256;2022-10-16T12:54:15;99749.91;;;24.66;66.78
70103;BME280;57470;50.034;15.256;2022-10-16T13:07:58;99741.88;;;25.09;63.98
70103;BME280;57470;50.034;15.256;2022-10-16T13:21:49;99745.09;;;24.54;65.17
70103;BME280;57470;50.034;15.256;2022-10-16T13:29:33;99744.97;;;23.80;66.55
70103;BME280;57470;50.034;15.256;2022-10-16T13:32:00;99751.56;;;23.63;70.05
70103;BME280;57470;50.034;15.256;2022-10-16T13:34:28;99746.22;;;23.55;68.47
70103;BME280;57470;50.034;15.256;2022-10-16T13:36:54;99748.84;;;23.63;67.91
70103;BME280;57470;50.034;15.256;2022-10-16T13:42:24;99761.06;;;23.67;68.87
70103;BME280;57470;50.034;15.256;2022-10-16T13:44:53;99757.13;;;24.07;69.74
70103;BME280;57470;50.034;15.256;2022-10-16T13:47:25;99764.41;;;23.46;68.11
70103;BME280;57470;50.034;15.256;2022-10-16T13:50:02;99758.16;;;23.69;67.70
70103;BME280;57470;50.034;15.256;2022-10-16T13:52:28;99763.09;;;23.88;68.21
70103;BME280;57470;50.034;15.256;2022-10-16T13:54:54;99763.56;;;24.29;67.76
70103;BME280;57470;50.034;15.256;2022-10-16T13:57:23;99765.19;;;24.01;67.79
70103;BME280;57470;50.034;15.256;2022-10-16T13:59:49;99762.88;;;24.12;69.14
70103;BME280;57470;50.034;15.256;2022-10-16T14:04:47;99770.06;;;23.68;69.00
70103;BME280;57470;50.034;15.256;2022-10-16T14:07:28;99771.88;;;24.13;68.95
70103;BME280;57470;50.034;15.256;2022-10-16T14:09:55;99766.38;;;24.36;69.70
70103;BME280;57470;50.034;15.256;2022-10-16T14:12:23;99772.31;;;24.02;69.08
70103;BME280;57470;50.034;15.256;2022-10-16T14:14:51;99778.56;;;24.25;71.76
70103;BME280;57470;50.034;15.256;2022-10-16T14:17:30;99776.91;;;24.16;74.35
70103;BME280;57470;50.034;15.256;2022-10-16T14:19:59;99774.53;;;24.21;75.72
70103;BME280;57470;50.034;15.256;2022-10-16T14:22:41;99777.16;;;24.29;75.10
70103;BME280;57470;50.034;15.256;2022-10-16T14:27:44;99780.38;;;24.10;73.91
70103;BME280;57470;50.034;15.256;2022-10-16T14:30:21;99782.69;;;23.98;74.97
70103;BME280;57470;50.034;15.256;2022-10-16T14:33:02;99777.81;;;23.93;75.67
70103;BME280;57470;50.034;15.256;2022-10-16T14:35:34;99786.03;;;23.85;76.93
70103;BME280;57470;50.034;15.256;2022-10-16T14:38:01;99794.00;;;23.64;77.66
70103;BME280;57470;50.034;15.256;2022-10-16T14:40:32;99790.63;;;23.62;76.87
70103;BME280;57470;50.034;15.256;2022-10-16T14:42:59;99780.06;;;23.36;77.56
70103;BME280;57470;50.034;15.256;2022-10-16T14:45:28;99787.09;;;23.31;77.48